createdAt,value
2022-11-13T00:01:18.645Z,31.42
2022-11-13T00:03:46.531Z,29.05
2022-11-13T00:06:15.402Z,27.92
2022-11-13T00:08:43.668Z,28.60
2022-11-13T00:11:14.813Z,27.83
2022-11-13T00:13:43.071Z,27.90
2022-11-13T00:16:12.788Z,30.42
2022-11-13T00:18:42.757Z,32.58
2022-11-13T00:21:14.006Z,31.23
2022-11-13T00:23:41.844Z,31.27
2022-11-13T00:26:12.959Z,31.17
2022-11-13T00:28:41.155Z,29.80
2022-11-13T00:31:10.166Z,29.83
2022-11-13T00:34:05.407Z,30.98
2022-11-13T00:36:28.747Z,25.60
2022-11-13T00:38:56.833Z,27.60
2022-11-13T00:41:25.374Z,31.17
2022-11-13T00:43:53.313Z,29.42
2022-11-13T00:46:21.357Z,25.80
2022-11-13T00:48:49.094Z,31.20
2022-11-13T00:51:16.828Z,30.50
2022-11-13T00:53:45.906Z,30.65
2022-11-13T00:56:13.734Z,31.75
2022-11-13T00:58:41.478Z,29.80
2022-11-13T01:01:12.328Z,29.17
2022-11-13T01:03:40.715Z,29.63
2022-11-13T01:06:13.442Z,30.17
2022-11-13T01:08:41.196Z,28.42
2022-11-13T01:11:12.119Z,25.58
2022-11-13T01:13:40.449Z,31.60
2022-11-13T01:16:10.979Z,29.58
2022-11-13T01:18:39.080Z,28.63
2022-11-13T01:21:09.498Z,25.25
2022-11-13T01:23:37.401Z,24.13
2022-11-13T01:26:06.949Z,22.42
2022-11-13T01:28:36.082Z,24.42
2022-11-13T01:31:06.344Z,27.13
2022-11-13T01:33:34.152Z,25.92
2022-11-13T01:36:02.782Z,24.90
2022-11-13T01:38:35.769Z,23.13
2022-11-13T01:41:03.879Z,24.60
2022-11-13T01:43:33.482Z,24.40
2022-11-13T01:46:15.351Z,20.42
2022-11-13T01:48:46.722Z,23.20
2022-11-13T01:51:19.888Z,24.00
2022-11-13T01:53:49.065Z,22.67
2022-11-13T01:56:18.220Z,19.13
2022-11-13T01:58:50.002Z,19.20
2022-11-13T02:01:19.171Z,19.02
2022-11-13T02:03:46.907Z,19.02
2022-11-13T02:06:15.095Z,21.02
2022-11-13T02:08:44.422Z,25.65
2022-11-13T02:11:12.537Z,22.90
2022-11-13T02:13:40.842Z,25.73
2022-11-13T02:16:11.354Z,23.40
2022-11-13T02:18:41.359Z,24.30
2022-11-13T02:21:19.466Z,24.23
2022-11-13T02:23:54.336Z,22.30
2022-11-13T02:26:27.461Z,21.73
2022-11-13T02:28:55.273Z,20.38
2022-11-13T02:31:22.938Z,22.92
2022-11-13T02:33:50.636Z,21.50
2022-11-13T02:36:22.183Z,24.33
2022-11-13T02:38:51.395Z,24.83
2022-11-13T02:41:19.145Z,20.67
2022-11-13T02:43:48.266Z,21.88
2022-11-13T02:46:15.949Z,23.33
2022-11-13T02:48:43.620Z,21.70
2022-11-13T02:51:11.337Z,22.40
2022-11-13T02:53:39.069Z,23.85
2022-11-13T02:56:07.494Z,24.27
2022-11-13T02:58:35.341Z,25.10
2022-11-13T03:01:05.149Z,23.33
2022-11-13T03:03:56.408Z,20.58
2022-11-13T03:06:20.536Z,23.17
2022-11-13T03:08:48.426Z,21.52
2022-11-13T03:11:16.130Z,21.65
2022-11-13T03:13:43.828Z,24.17
2022-11-13T03:16:14.841Z,21.98
2022-11-13T03:18:42.754Z,24.42
2022-11-13T03:21:13.083Z,24.63
2022-11-13T03:23:44.991Z,25.77
2022-11-13T03:26:15.770Z,24.88
2022-11-13T03:28:44.302Z,21.77
2022-11-13T03:31:14.124Z,23.05
2022-11-13T03:33:42.018Z,24.98
2022-11-13T03:36:09.958Z,26.55
2022-11-13T03:38:37.956Z,23.73
2022-11-13T03:41:06.144Z,26.05
2022-11-13T03:43:33.841Z,23.00
2022-11-13T03:46:01.596Z,27.23
2022-11-13T03:48:30.922Z,24.58
2022-11-13T03:50:58.957Z,26.25
2022-11-13T03:53:26.954Z,27.33
2022-11-13T03:55:54.658Z,26.45
2022-11-13T03:58:22.376Z,36.47
2022-11-13T04:00:51.720Z,34.40
2022-11-13T04:03:20.103Z,33.60
2022-11-13T04:05:51.068Z,29.95
2022-11-13T04:08:19.396Z,32.40
2022-11-13T04:10:47.229Z,29.92
2022-11-13T04:13:15.020Z,33.83
2022-11-13T04:15:45.114Z,33.80
2022-11-13T04:18:13.009Z,32.90
2022-11-13T04:20:40.699Z,34.17
2022-11-13T04:23:12.601Z,35.55
2022-11-13T04:25:40.370Z,35.00
2022-11-13T04:28:08.093Z,36.92
2022-11-13T04:30:35.758Z,35.00
2022-11-13T04:33:03.481Z,31.73
2022-11-13T04:35:31.185Z,29.95
2022-11-13T04:37:58.857Z,32.47
2022-11-13T04:40:27.943Z,29.80
2022-11-13T04:42:54.645Z,30.52
2022-11-13T04:45:27.438Z,30.52
2022-11-13T04:47:55.213Z,30.38
2022-11-13T04:50:23.353Z,28.38
2022-11-13T04:52:51.398Z,29.75
2022-11-13T04:55:19.179Z,28.40
2022-11-13T04:57:51.463Z,33.28
2022-11-13T05:00:19.710Z,29.15
2022-11-13T05:02:47.461Z,27.33
2022-11-13T05:05:15.180Z,37.20
2022-11-13T05:07:43.480Z,35.08
2022-11-13T05:10:11.217Z,33.80
2022-11-13T05:12:38.884Z,36.83
2022-11-13T05:15:09.273Z,34.60
2022-11-13T05:17:37.074Z,34.70
2022-11-13T05:20:05.421Z,27.67
2022-11-13T05:22:33.097Z,28.50
2022-11-13T05:25:00.851Z,28.33
2022-11-13T05:27:28.519Z,31.13
2022-11-13T05:29:56.262Z,33.88
2022-11-13T05:32:25.357Z,27.73
2022-11-13T05:34:53.093Z,33.55
2022-11-13T05:37:20.898Z,31.13
2022-11-13T05:39:48.631Z,25.35
2022-11-13T05:42:16.387Z,34.35
2022-11-13T05:44:44.271Z,30.73
2022-11-13T05:47:11.943Z,32.22
2022-11-13T05:49:41.029Z,25.70
2022-11-13T05:52:08.774Z,35.30
2022-11-13T05:54:37.066Z,33.22
2022-11-13T05:57:04.943Z,33.42
2022-11-13T05:59:32.671Z,28.60
2022-11-13T06:02:02.510Z,29.13
2022-11-13T06:04:30.261Z,29.63
2022-11-13T06:06:59.362Z,30.05
2022-11-13T06:09:27.130Z,27.70
2022-11-13T06:11:54.779Z,28.48
2022-11-13T06:14:22.449Z,27.30
2022-11-13T06:16:50.154Z,26.48
2022-11-13T06:19:17.855Z,20.08
2022-11-13T06:21:45.548Z,20.70
2022-11-13T06:24:14.834Z,23.08
2022-11-13T06:26:42.854Z,23.70
2022-11-13T06:29:12.997Z,21.42
2022-11-13T06:31:40.835Z,18.58
2022-11-13T06:34:08.798Z,18.60
2022-11-13T06:36:38.113Z,23.10
2022-11-13T06:39:07.605Z,20.70
2022-11-13T06:41:38.247Z,21.38
2022-11-13T06:44:06.372Z,20.65
2022-11-13T06:46:34.359Z,20.52
2022-11-13T06:49:02.086Z,22.67
2022-11-13T06:51:31.401Z,20.70
2022-11-13T06:53:59.433Z,20.67
2022-11-13T06:56:27.561Z,19.48
2022-11-13T06:58:56.953Z,23.85
2022-11-13T07:01:26.717Z,22.85
2022-11-13T07:03:54.737Z,25.88
2022-11-13T07:06:24.267Z,25.55
2022-11-13T07:08:52.480Z,21.73
2022-11-13T07:11:22.339Z,21.40
2022-11-13T07:13:50.514Z,19.15
2022-11-13T07:16:19.984Z,21.20
2022-11-13T07:18:51.751Z,22.63
2022-11-13T07:21:20.057Z,22.60
2022-11-13T07:23:49.457Z,19.27
2022-11-13T07:26:17.333Z,17.63
2022-11-13T07:28:45.112Z,20.05
2022-11-13T07:31:14.256Z,16.30
2022-11-13T07:33:43.977Z,16.90
2022-11-13T07:36:12.073Z,21.35
2022-11-13T07:38:39.852Z,20.55
2022-11-13T07:41:08.381Z,18.45
2022-11-13T07:43:36.105Z,21.70
2022-11-13T07:46:03.889Z,22.60
2022-11-13T07:48:32.026Z,19.95
2022-11-13T07:51:02.867Z,24.75
2022-11-13T07:53:30.821Z,23.20
2022-11-13T07:56:02.177Z,15.98
2022-11-13T07:58:30.460Z,19.42
2022-11-13T08:01:03.224Z,19.20
2022-11-13T08:06:03.547Z,18.15
2022-11-13T08:08:31.641Z,18.73
2022-11-13T08:10:59.591Z,17.55
2022-11-13T08:13:27.356Z,19.10
2022-11-13T08:15:55.074Z,17.90
2022-11-13T08:18:22.800Z,19.05
2022-11-13T08:20:50.552Z,19.50
2022-11-13T08:23:19.693Z,21.52
2022-11-13T08:25:47.606Z,19.58
2022-11-13T08:28:15.559Z,20.05
2022-11-13T08:30:45.026Z,20.08
2022-11-13T08:33:12.872Z,26.25
2022-11-13T08:35:40.583Z,35.45
2022-11-13T08:38:10.131Z,20.27
2022-11-13T08:40:39.357Z,19.38
2022-11-13T08:43:07.111Z,20.75
2022-11-13T08:45:34.851Z,20.05
2022-11-13T08:48:03.095Z,19.50
2022-11-13T08:50:32.072Z,19.73
2022-11-13T08:53:01.381Z,18.88
2022-11-13T08:55:29.587Z,18.10
2022-11-13T08:58:01.821Z,18.48
2022-11-13T09:00:30.904Z,18.20
2022-11-13T09:02:59.865Z,18.65
2022-11-13T09:05:27.927Z,18.70
2022-11-13T09:07:58.138Z,19.23
2022-11-13T09:10:26.937Z,18.65
2022-11-13T09:12:59.061Z,18.48
2022-11-13T09:15:28.839Z,17.95
2022-11-13T09:18:00.592Z,18.52
2022-11-13T09:20:29.118Z,18.45
2022-11-13T09:23:00.612Z,18.13
2022-11-13T09:25:35.835Z,17.35
2022-11-13T09:28:05.623Z,18.95
2022-11-13T09:30:34.814Z,17.70
2022-11-13T09:33:02.878Z,17.67
2022-11-13T09:35:35.088Z,17.23
2022-11-13T09:38:07.870Z,16.85
2022-11-13T09:40:42.978Z,17.17
2022-11-13T09:43:22.468Z,16.55
2022-11-13T09:45:54.028Z,16.30
2022-11-13T09:48:30.195Z,16.90
2022-11-13T09:51:00.647Z,16.05
2022-11-13T09:53:35.456Z,16.02
2022-11-13T09:56:16.027Z,16.13
2022-11-13T09:58:47.991Z,15.55
2022-11-13T10:01:27.168Z,15.95
2022-11-13T10:04:04.212Z,14.55
2022-11-13T10:06:47.835Z,14.57
2022-11-13T10:09:26.161Z,13.65
2022-11-13T10:11:56.675Z,14.35
2022-11-13T10:14:30.267Z,13.45
2022-11-13T10:17:04.617Z,12.68
2022-11-13T10:19:43.658Z,12.73
2022-11-13T10:22:34.116Z,12.50
2022-11-13T10:25:11.665Z,12.90
2022-11-13T10:27:39.771Z,12.40
2022-11-13T10:30:15.199Z,11.32
2022-11-13T10:32:45.365Z,10.60
2022-11-13T10:35:38.187Z,10.30
2022-11-13T10:38:09.165Z,10.57
2022-11-13T10:40:39.607Z,10.48
2022-11-13T10:43:15.282Z,9.90
2022-11-13T10:45:43.698Z,9.73
2022-11-13T10:48:22.331Z,8.63
2022-11-13T10:50:58.752Z,7.57
2022-11-13T10:53:28.918Z,6.93
2022-11-13T10:55:58.661Z,6.18
2022-11-13T10:58:27.042Z,6.60
2022-11-13T11:00:54.994Z,6.07
2022-11-13T11:03:25.803Z,6.00
2022-11-13T11:05:55.490Z,6.28
2022-11-13T11:08:27.492Z,6.57
2022-11-13T11:11:16.343Z,7.75
2022-11-13T11:13:44.658Z,7.10
2022-11-13T11:16:19.292Z,6.30
2022-11-13T11:18:53.882Z,5.18
2022-11-13T11:21:24.821Z,4.97
2022-11-13T11:23:58.817Z,5.40
2022-11-13T11:26:33.639Z,4.85
2022-11-13T11:29:17.578Z,4.78
2022-11-13T11:31:51.466Z,4.90
2022-11-13T11:34:25.449Z,4.85
2022-11-13T11:36:58.753Z,4.53
2022-11-13T11:39:30.621Z,4.78
2022-11-13T11:42:06.855Z,4.88
2022-11-13T11:44:43.698Z,5.38
2022-11-13T11:47:16.099Z,5.10
2022-11-13T11:49:46.379Z,4.95
2022-11-13T11:52:30.209Z,4.60
2022-11-13T11:55:08.496Z,4.82
2022-11-13T11:57:49.573Z,4.75
2022-11-13T12:00:19.693Z,5.05
2022-11-13T12:03:14.927Z,5.10
2022-11-13T12:05:56.331Z,4.97
2022-11-13T12:08:35.112Z,4.90
2022-11-13T12:11:12.843Z,5.10
2022-11-13T12:13:51.547Z,5.57
2022-11-13T12:16:25.520Z,5.50
2022-11-13T12:19:01.540Z,5.30
2022-11-13T12:21:40.718Z,5.13
2022-11-13T12:24:43.577Z,5.30
2022-11-13T12:27:22.393Z,5.00
2022-11-13T12:30:02.561Z,5.38
2022-11-13T12:32:45.595Z,5.30
2022-11-13T12:35:17.832Z,5.50
2022-11-13T12:37:53.688Z,5.55
2022-11-13T12:40:29.385Z,5.53
2022-11-13T12:43:08.382Z,5.70
2022-11-13T12:45:50.832Z,5.55
2022-11-13T12:48:28.006Z,5.60
2022-11-13T12:51:01.347Z,6.00
2022-11-13T12:53:32.609Z,5.88
2022-11-13T12:56:02.685Z,5.93
2022-11-13T12:58:32.652Z,5.82
2022-11-13T13:01:06.735Z,6.35
2022-11-13T13:04:03.383Z,6.05
2022-11-13T13:06:47.474Z,5.72
2022-11-13T13:09:31.131Z,5.95
2022-11-13T13:12:07.982Z,6.05
2022-11-13T13:15:04.148Z,5.93
2022-11-13T13:17:31.853Z,5.35
2022-11-13T13:20:01.513Z,5.10
2022-11-13T13:22:33.169Z,4.80
2022-11-13T13:25:05.267Z,5.60
2022-11-13T13:27:38.464Z,5.88
2022-11-13T13:30:21.913Z,5.78
2022-11-13T13:32:58.709Z,5.38
2022-11-13T13:35:31.630Z,5.28
2022-11-13T13:38:07.019Z,5.43
2022-11-13T13:40:42.239Z,5.30
2022-11-13T13:43:29.320Z,5.03
2022-11-13T13:46:05.815Z,4.47
2022-11-13T13:48:37.751Z,3.63
2022-11-13T13:51:12.864Z,3.95
2022-11-13T13:53:40.585Z,3.55
2022-11-13T13:56:13.295Z,3.80
2022-11-13T13:58:41.723Z,3.80
2022-11-13T14:01:19.671Z,3.50
2022-11-13T14:03:48.150Z,3.47
2022-11-13T14:06:21.075Z,3.60
2022-11-13T14:08:49.376Z,3.22
2022-11-13T14:11:20.462Z,3.70
2022-11-13T14:13:49.505Z,4.00
2022-11-13T14:16:17.212Z,3.40
2022-11-13T14:18:45.012Z,3.58
2022-11-13T14:21:16.616Z,3.50
2022-11-13T14:23:47.996Z,3.40
2022-11-13T14:26:16.196Z,3.50
2022-11-13T14:28:53.386Z,3.90
2022-11-13T14:31:26.470Z,3.60
2022-11-13T14:33:54.376Z,3.80
2022-11-13T14:36:29.866Z,7.00
2022-11-13T14:38:58.201Z,7.00
2022-11-13T14:41:32.868Z,4.10
2022-11-13T14:44:02.837Z,3.70
2022-11-13T14:46:32.944Z,4.70
2022-11-13T14:49:00.942Z,5.00
2022-11-13T14:51:30.718Z,4.35
2022-11-13T14:54:07.447Z,3.75
2022-11-13T14:56:40.292Z,5.13
2022-11-13T14:59:14.444Z,3.67
2022-11-13T15:01:55.225Z,3.58
2022-11-13T15:04:23.372Z,3.80
2022-11-13T15:06:58.007Z,3.90
2022-11-13T15:09:26.373Z,4.03
2022-11-13T15:11:54.125Z,3.67
2022-11-13T15:14:23.761Z,3.90
2022-11-13T15:16:53.672Z,3.50
2022-11-13T15:19:28.205Z,3.33
2022-11-13T15:22:25.092Z,3.38
2022-11-13T15:24:44.217Z,3.80
2022-11-13T15:27:14.947Z,3.95
2022-11-13T15:29:44.537Z,4.10
2022-11-13T15:32:13.969Z,4.18
2022-11-13T15:34:41.685Z,4.43
2022-11-13T15:37:13.872Z,4.00
2022-11-13T15:39:41.583Z,4.22
2022-11-13T15:42:14.464Z,4.35
2022-11-13T15:44:42.251Z,4.63
2022-11-13T15:47:29.648Z,4.75
2022-11-13T15:50:13.005Z,4.35
2022-11-13T15:52:48.679Z,5.13
2022-11-13T15:55:29.955Z,4.88
2022-11-13T15:57:59.105Z,4.75
2022-11-13T16:00:28.527Z,4.50
2022-11-13T16:03:01.183Z,4.50
2022-11-13T16:05:31.572Z,4.90
2022-11-13T16:07:59.305Z,5.18
2022-11-13T16:10:27.381Z,4.60
2022-11-13T16:12:55.401Z,5.35
2022-11-13T16:15:23.267Z,5.70
2022-11-13T16:17:53.675Z,5.70
2022-11-13T16:20:22.749Z,5.60
2022-11-13T16:22:50.617Z,5.45
2022-11-13T16:25:20.313Z,6.18
2022-11-13T16:27:48.662Z,7.88
2022-11-13T16:30:20.047Z,9.65
2022-11-13T16:32:48.555Z,11.68
2022-11-13T16:35:17.577Z,14.30
2022-11-13T16:37:47.291Z,22.70
2022-11-13T16:40:21.701Z,36.92
2022-11-13T16:42:49.395Z,26.25
2022-11-13T16:45:18.090Z,8.90
2022-11-13T16:47:46.422Z,8.52
2022-11-13T16:50:17.097Z,7.82
2022-11-13T16:52:46.199Z,23.35
2022-11-13T16:55:14.043Z,20.92
2022-11-13T16:57:42.348Z,30.73
2022-11-13T17:00:15.207Z,8.52
2022-11-13T17:02:43.155Z,7.60
2022-11-13T17:05:13.565Z,7.10
2022-11-13T17:07:41.449Z,7.60
2022-11-13T17:13:01.685Z,8.77
2022-11-13T17:15:29.423Z,24.60
2022-11-13T17:17:58.747Z,15.55
2022-11-13T17:20:26.629Z,32.20
2022-11-13T17:22:54.289Z,25.38
2022-11-13T17:25:26.476Z,36.00
2022-11-13T17:27:54.301Z,58.25
2022-11-13T17:30:22.046Z,32.33
2022-11-13T17:32:49.798Z,48.35
2022-11-13T17:35:17.711Z,25.40
2022-11-13T17:37:45.391Z,135.75
2022-11-13T17:40:13.248Z,206.02
2022-11-13T17:42:43.147Z,30.73
2022-11-13T17:45:11.591Z,17.05
2022-11-13T17:47:39.393Z,16.80
2022-11-13T17:50:08.104Z,16.70
2022-11-13T17:52:35.918Z,21.00
2022-11-13T17:55:06.072Z,16.83
2022-11-13T17:57:34.382Z,16.70
2022-11-13T18:00:04.830Z,18.15
2022-11-13T18:02:34.112Z,21.23
2022-11-13T18:05:04.181Z,16.95
2022-11-13T18:07:32.427Z,15.57
2022-11-13T18:10:00.148Z,15.23
2022-11-13T18:12:27.899Z,12.43
2022-11-13T18:14:55.706Z,13.43
2022-11-13T18:17:26.669Z,12.02
2022-11-13T18:20:01.339Z,18.23
2022-11-13T18:22:29.972Z,19.58
2022-11-13T18:24:57.759Z,12.95
2022-11-13T18:27:26.037Z,24.30
2022-11-13T18:29:53.740Z,17.50
2022-11-13T18:32:21.669Z,14.77
2022-11-13T18:34:50.888Z,12.75
2022-11-13T18:37:18.663Z,18.75
2022-11-13T18:39:46.470Z,18.08
2022-11-13T18:42:14.214Z,28.45
2022-11-13T18:44:42.024Z,23.25
2022-11-13T18:47:09.774Z,33.55
2022-11-13T18:49:37.666Z,27.95
2022-11-13T18:52:08.199Z,16.25
2022-11-13T18:54:36.087Z,14.10
2022-11-13T18:57:04.182Z,12.57
2022-11-13T18:59:32.537Z,12.85
2022-11-13T19:02:00.493Z,20.52
2022-11-13T19:04:28.323Z,14.15
2022-11-13T19:06:56.102Z,14.07
2022-11-13T19:09:25.267Z,15.35
2022-11-13T19:11:55.085Z,28.23
2022-11-13T19:14:22.802Z,11.52
2022-11-13T19:16:50.513Z,14.82
2022-11-13T19:19:22.264Z,13.30
2022-11-13T19:21:51.229Z,10.35
2022-11-13T19:24:19.027Z,12.52
2022-11-13T19:26:52.367Z,29.75
2022-11-13T19:29:20.557Z,43.10
2022-11-13T19:31:48.764Z,40.50
2022-11-13T19:34:16.631Z,23.80
2022-11-13T19:36:45.089Z,25.58
2022-11-13T19:39:13.483Z,22.33
2022-11-13T19:41:41.237Z,21.17
2022-11-13T19:44:10.944Z,35.22
2022-11-13T19:46:38.668Z,16.50
2022-11-13T19:49:06.967Z,13.52
2022-11-13T19:51:34.696Z,10.52
2022-11-13T19:54:02.436Z,13.65
2022-11-13T19:56:30.226Z,36.47
2022-11-13T19:58:57.913Z,10.55
2022-11-13T20:01:28.839Z,28.83
2022-11-13T20:03:57.536Z,15.43
2022-11-13T20:06:26.441Z,8.60
2022-11-13T20:08:54.162Z,14.93
2022-11-13T20:11:21.912Z,13.38
2022-11-13T20:13:49.762Z,9.45
2022-11-13T20:16:20.848Z,11.10
2022-11-13T20:18:50.610Z,65.15
2022-11-13T20:21:24.475Z,17.23
2022-11-13T20:23:53.028Z,10.30
2022-11-13T20:26:20.733Z,37.97
2022-11-13T20:28:48.453Z,23.77
2022-11-13T20:31:19.515Z,38.60
2022-11-13T20:33:49.341Z,40.25
2022-11-13T20:36:18.568Z,17.05
2022-11-13T20:38:50.540Z,8.50
2022-11-13T20:41:20.530Z,15.05
2022-11-13T20:43:48.963Z,6.80
2022-11-13T20:46:18.430Z,6.60
2022-11-13T20:48:46.615Z,7.25
2022-11-13T20:51:17.339Z,6.65
2022-11-13T20:53:45.050Z,6.43
2022-11-13T20:56:13.137Z,6.93
2022-11-13T20:58:42.967Z,7.32
2022-11-13T21:01:12.679Z,7.90
2022-11-13T21:03:45.197Z,7.03
2022-11-13T21:08:45.521Z,8.52
2022-11-13T21:11:16.539Z,14.77
2022-11-13T21:13:44.473Z,14.27
2022-11-13T21:16:12.399Z,11.70
2022-11-13T21:18:40.134Z,11.18
2022-11-13T21:21:10.239Z,12.15
2022-11-13T21:23:38.585Z,11.15
2022-11-13T21:26:09.195Z,17.10
2022-11-13T21:28:37.497Z,24.92
2022-11-13T21:31:07.290Z,15.35
2022-11-13T21:33:37.664Z,25.90
2022-11-13T21:36:06.700Z,12.13
2022-11-13T21:38:34.749Z,8.35
2022-11-13T21:41:21.447Z,8.80
2022-11-13T21:43:51.278Z,11.82
2022-11-13T21:46:20.232Z,9.02
2022-11-13T21:48:48.068Z,8.95
2022-11-13T21:51:15.928Z,7.47
2022-11-13T21:53:43.899Z,9.18
2022-11-13T21:56:15.655Z,8.80
2022-11-13T21:58:44.465Z,8.70
2022-11-13T22:01:14.362Z,10.05
2022-11-13T22:03:42.339Z,8.30
2022-11-13T22:06:17.227Z,6.75
2022-11-13T22:08:46.117Z,11.57
2022-11-13T22:11:14.314Z,14.63
2022-11-13T22:13:41.998Z,8.82
2022-11-13T22:16:12.194Z,14.75
2022-11-13T22:18:41.416Z,10.63
2022-11-13T22:21:11.863Z,11.32
2022-11-13T22:23:39.826Z,13.40
2022-11-13T22:26:09.204Z,20.23
2022-11-13T22:28:38.608Z,24.48
2022-11-13T22:31:07.432Z,21.17
2022-11-13T22:33:37.111Z,15.05
2022-11-13T22:36:08.630Z,9.88
2022-11-13T22:38:37.193Z,12.77
2022-11-13T22:41:06.438Z,9.52
2022-11-13T22:43:35.560Z,8.65
2022-11-13T22:46:05.013Z,8.40
2022-11-13T22:48:33.162Z,7.88
2022-11-13T22:51:07.731Z,7.97
2022-11-13T22:53:35.443Z,7.65
2022-11-13T22:56:04.651Z,7.43
2022-11-13T22:58:32.470Z,7.60
2022-11-13T23:01:07.559Z,7.13
2022-11-13T23:03:38.371Z,7.47
2022-11-13T23:06:08.726Z,7.93
2022-11-13T23:08:38.882Z,7.57
2022-11-13T23:11:07.554Z,7.97
2022-11-13T23:13:35.613Z,8.32
2022-11-13T23:16:03.804Z,7.95
2022-11-13T23:18:32.601Z,8.27
2022-11-13T23:21:03.393Z,8.00
2022-11-13T23:23:33.049Z,8.45
2022-11-13T23:26:03.411Z,8.13
2022-11-13T23:28:31.810Z,8.45
2022-11-13T23:30:59.822Z,8.60
2022-11-13T23:33:27.753Z,8.32
2022-11-13T23:35:55.474Z,8.20
2022-11-13T23:38:23.476Z,9.25
2022-11-13T23:40:55.881Z,8.20
2022-11-13T23:43:36.477Z,8.35
2022-11-13T23:46:12.190Z,8.68
2022-11-13T23:48:40.312Z,9.18
2022-11-13T23:51:08.307Z,9.07
2022-11-13T23:53:36.003Z,8.25
2022-11-13T23:56:05.608Z,8.73
2022-11-13T23:58:33.634Z,8.85
